createdAt,value
2023-04-02T00:01:18.875Z,4.11
2023-04-02T00:03:54.047Z,4.14
2023-04-02T00:06:34.318Z,4.17
2023-04-02T00:09:15.849Z,4.18
2023-04-02T00:11:48.712Z,4.17
2023-04-02T00:14:28.931Z,4.19
2023-04-02T00:16:59.997Z,4.20
2023-04-02T00:19:36.953Z,4.24
2023-04-02T00:22:09.655Z,4.20
2023-04-02T00:24:39.310Z,4.21
2023-04-02T00:27:12.173Z,4.23
2023-04-02T00:29:51.788Z,4.20
2023-04-02T00:32:32.239Z,4.17
2023-04-02T00:35:01.073Z,4.16
2023-04-02T00:37:39.467Z,4.16
2023-04-02T00:40:20.944Z,4.15
2023-04-02T00:42:50.344Z,4.11
2023-04-02T00:45:31.810Z,4.08
2023-04-02T00:48:13.335Z,4.06
2023-04-02T00:50:44.530Z,4.06
2023-04-02T00:53:25.607Z,4.06
2023-04-02T00:55:54.357Z,4.02
2023-04-02T00:58:37.527Z,4.03
2023-04-02T01:01:19.544Z,4.00
2023-04-02T01:03:59.769Z,3.97
2023-04-02T01:06:37.937Z,4.00
2023-04-02T01:09:30.176Z,4.07
2023-04-02T01:12:44.263Z,4.10
2023-04-02T01:15:21.485Z,4.06
2023-04-02T01:18:01.712Z,4.08
2023-04-02T01:20:48.203Z,4.08
2023-04-02T01:23:47.398Z,4.03
2023-04-02T01:26:34.247Z,4.02
2023-04-02T01:29:14.296Z,4.02
2023-04-02T01:31:44.876Z,4.04
2023-04-02T01:34:19.992Z,3.99
2023-04-02T01:36:53.790Z,3.95
2023-04-02T01:39:34.164Z,3.96
2023-04-02T01:42:20.396Z,3.97
2023-04-02T01:44:52.871Z,3.99
2023-04-02T01:47:27.612Z,4.04
2023-04-02T01:50:13.126Z,4.04
2023-04-02T01:52:45.333Z,4.05
2023-04-02T01:55:21.342Z,4.07
2023-04-02T01:57:52.742Z,4.08
2023-04-02T02:00:22.718Z,4.07
2023-04-02T02:02:52.483Z,4.08
2023-04-02T02:05:23.227Z,4.08
2023-04-02T02:07:52.869Z,4.08
2023-04-02T02:10:28.786Z,4.07
2023-04-02T02:13:00.626Z,4.08
2023-04-02T02:15:31.890Z,4.08
2023-04-02T02:18:06.078Z,4.06
2023-04-02T02:20:36.415Z,4.08
2023-04-02T02:23:05.057Z,4.12
2023-04-02T02:25:36.305Z,4.14
2023-04-02T02:28:10.470Z,4.13
2023-04-02T02:30:44.972Z,4.10
2023-04-02T02:33:25.531Z,4.08
2023-04-02T02:36:18.934Z,4.05
2023-04-02T02:39:03.640Z,4.00
2023-04-02T02:41:54.763Z,3.95
2023-04-02T02:44:32.473Z,3.95
2023-04-02T02:47:04.434Z,3.95
2023-04-02T02:49:36.393Z,3.95
2023-04-02T02:52:25.552Z,3.96
2023-04-02T02:55:05.493Z,3.93
2023-04-02T02:57:53.436Z,3.89
2023-04-02T03:00:24.718Z,3.87
2023-04-02T03:02:57.028Z,3.89
2023-04-02T03:05:28.648Z,3.89
2023-04-02T03:08:03.133Z,3.88
2023-04-02T03:11:06.937Z,3.91
2023-04-02T03:13:39.206Z,3.90
2023-04-02T03:16:15.446Z,3.94
2023-04-02T03:18:52.548Z,3.98
2023-04-02T03:21:39.769Z,3.99
2023-04-02T03:24:19.920Z,3.99
2023-04-02T03:27:13.596Z,4.01
2023-04-02T03:29:49.854Z,4.03
2023-04-02T03:32:27.070Z,4.07
2023-04-02T03:34:59.780Z,4.09
2023-04-02T03:37:43.051Z,4.10
2023-04-02T03:40:35.457Z,4.09
2023-04-02T03:43:13.361Z,4.10
2023-04-02T03:45:46.472Z,4.15
2023-04-02T03:48:24.625Z,4.18
2023-04-02T03:51:04.331Z,4.18
2023-04-02T03:53:33.406Z,4.20
2023-04-02T03:56:02.633Z,4.22
2023-04-02T03:58:47.147Z,4.24
2023-04-02T04:01:43.910Z,4.21
2023-04-02T04:04:17.920Z,4.12
2023-04-02T04:06:52.555Z,4.16
2023-04-02T04:09:42.431Z,4.21
2023-04-02T04:12:36.827Z,4.19
2023-04-02T04:15:20.563Z,4.17
2023-04-02T04:18:04.570Z,4.14
2023-04-02T04:20:46.303Z,4.13
2023-04-02T04:23:30.507Z,4.14
2023-04-02T04:26:11.940Z,4.07
2023-04-02T04:29:06.006Z,4.04
2023-04-02T04:31:57.049Z,4.02
2023-04-02T04:34:47.031Z,4.04
2023-04-02T04:37:39.859Z,4.03
2023-04-02T04:40:20.028Z,3.96
2023-04-02T04:42:53.301Z,3.94
2023-04-02T04:45:53.156Z,3.94
2023-04-02T04:48:28.246Z,3.95
2023-04-02T04:51:15.576Z,3.96
2023-04-02T04:53:49.309Z,3.96
2023-04-02T04:56:23.901Z,3.96
2023-04-02T04:59:10.706Z,3.95
2023-04-02T05:01:45.695Z,3.95
2023-04-02T05:04:26.284Z,3.94
2023-04-02T05:07:13.521Z,3.94
2023-04-02T05:10:13.815Z,3.95
2023-04-02T05:12:57.483Z,3.93
2023-04-02T05:15:31.404Z,3.92
2023-04-02T05:18:18.713Z,3.92
2023-04-02T05:20:54.726Z,3.93
2023-04-02T05:23:34.421Z,3.98
2023-04-02T05:26:06.119Z,3.98
2023-04-02T05:28:40.484Z,3.98
2023-04-02T05:31:26.132Z,4.01
2023-04-02T05:33:55.700Z,4.03
2023-04-02T05:36:29.687Z,4.06
2023-04-02T05:38:59.909Z,4.08
2023-04-02T05:41:40.535Z,4.10
2023-04-02T05:44:48.070Z,4.13
2023-04-02T05:47:25.716Z,4.14
2023-04-02T05:50:17.200Z,4.15
2023-04-02T05:52:52.217Z,4.15
2023-04-02T05:55:23.670Z,4.19
2023-04-02T05:58:21.322Z,4.26
2023-04-02T06:01:01.721Z,4.29
2023-04-02T06:03:37.582Z,4.29
2023-04-02T06:06:32.244Z,4.33
2023-04-02T06:09:10.024Z,4.34
2023-04-02T06:11:47.323Z,4.39
2023-04-02T06:14:18.876Z,4.45
2023-04-02T06:16:48.506Z,4.52
2023-04-02T06:19:22.452Z,4.61
2023-04-02T06:21:58.310Z,4.64
2023-04-02T06:24:29.495Z,4.60
2023-04-02T06:27:06.485Z,4.63
2023-04-02T06:29:40.995Z,4.72
2023-04-02T06:32:13.162Z,4.77
2023-04-02T06:34:45.119Z,4.80
2023-04-02T06:37:25.885Z,4.92
2023-04-02T06:40:42.391Z,5.01
2023-04-02T06:43:38.684Z,5.00
2023-04-02T06:46:43.766Z,4.99
2023-04-02T06:49:19.114Z,5.04
2023-04-02T06:51:52.189Z,5.10
2023-04-02T06:54:21.156Z,5.13
2023-04-02T06:56:56.585Z,5.17
2023-04-02T06:59:29.109Z,5.22
2023-04-02T07:02:16.313Z,5.28
2023-04-02T07:04:44.542Z,5.22
2023-04-02T07:07:12.881Z,5.20
2023-04-02T07:09:43.596Z,5.24
2023-04-02T07:12:13.632Z,5.30
2023-04-02T07:14:42.717Z,5.37
2023-04-02T07:17:17.913Z,5.41
2023-04-02T07:19:49.711Z,5.40
2023-04-02T07:22:20.243Z,5.40
2023-04-02T07:24:52.515Z,5.37
2023-04-02T07:27:20.569Z,5.39
2023-04-02T07:29:48.532Z,5.45
2023-04-02T07:32:17.441Z,5.52
2023-04-02T07:34:45.709Z,5.56
2023-04-02T07:37:14.755Z,5.58
2023-04-02T07:39:42.674Z,5.60
2023-04-02T07:42:10.798Z,5.64
2023-04-02T07:44:38.963Z,5.73
2023-04-02T07:47:08.722Z,5.84
2023-04-02T07:49:36.692Z,5.86
2023-04-02T07:52:05.138Z,5.81
2023-04-02T07:54:33.248Z,5.76
2023-04-02T07:57:01.653Z,5.72
2023-04-02T07:59:29.810Z,5.70
2023-04-02T08:01:58.118Z,5.68
2023-04-02T08:04:26.255Z,5.71
2023-04-02T08:06:54.310Z,5.70
2023-04-02T08:09:22.229Z,5.68
2023-04-02T08:11:50.250Z,5.68
2023-04-02T08:14:18.318Z,5.72
2023-04-02T08:16:56.614Z,5.68
2023-04-02T08:19:24.912Z,5.60
2023-04-02T08:21:54.033Z,5.55
2023-04-02T08:24:23.081Z,5.52
2023-04-02T08:26:51.727Z,5.52
2023-04-02T08:29:20.674Z,5.58
2023-04-02T08:31:48.604Z,5.59
2023-04-02T08:34:16.566Z,5.57
2023-04-02T08:36:45.396Z,5.61
2023-04-02T08:39:13.975Z,5.61
2023-04-02T08:41:53.741Z,5.55
2023-04-02T08:44:37.050Z,5.55
2023-04-02T08:47:08.505Z,5.56
2023-04-02T08:49:44.864Z,5.57
2023-04-02T08:52:28.801Z,5.57
2023-04-02T08:54:58.320Z,5.63
2023-04-02T08:57:49.802Z,5.70
2023-04-02T09:00:26.869Z,5.74
2023-04-02T09:03:03.678Z,5.81
2023-04-02T09:05:34.978Z,5.92
2023-04-02T09:08:08.015Z,6.04
2023-04-02T09:10:42.740Z,6.14
2023-04-02T09:13:24.668Z,6.25
2023-04-02T09:16:03.910Z,6.32
2023-04-02T09:18:33.301Z,6.37
2023-04-02T09:21:17.463Z,6.45
2023-04-02T09:23:45.549Z,6.50
2023-04-02T09:26:29.361Z,6.60
2023-04-02T09:29:02.132Z,6.73
2023-04-02T09:31:44.563Z,6.82
2023-04-02T09:34:33.802Z,6.94
2023-04-02T09:37:08.007Z,7.04
2023-04-02T09:39:36.033Z,7.17
2023-04-02T09:42:28.207Z,7.23
2023-04-02T09:45:23.820Z,7.30
2023-04-02T09:47:54.186Z,7.36
2023-04-02T09:50:22.111Z,7.35
2023-04-02T09:52:50.650Z,7.33
2023-04-02T09:55:29.119Z,7.31
2023-04-02T09:58:08.235Z,7.20
2023-04-02T10:00:37.082Z,7.13
2023-04-02T10:03:23.838Z,7.09
2023-04-02T10:06:14.328Z,7.03
2023-04-02T10:08:45.273Z,7.00
2023-04-02T10:11:36.606Z,7.03
2023-04-02T10:14:26.111Z,6.94
2023-04-02T10:16:58.231Z,6.89
2023-04-02T10:19:42.587Z,6.88
2023-04-02T10:22:15.356Z,6.82
2023-04-02T10:24:44.263Z,6.82
2023-04-02T10:27:18.415Z,6.83
2023-04-02T10:29:52.168Z,6.86
2023-04-02T10:32:37.505Z,6.80
2023-04-02T10:35:16.230Z,6.73
2023-04-02T10:37:47.228Z,6.71
2023-04-02T10:40:27.864Z,6.76
2023-04-02T10:43:24.006Z,6.83
2023-04-02T10:46:12.674Z,6.84
2023-04-02T10:49:02.248Z,6.77
2023-04-02T10:52:24.274Z,6.71
2023-04-02T10:54:55.568Z,6.63
2023-04-02T10:57:33.910Z,6.67
2023-04-02T11:00:11.214Z,6.72
2023-04-02T11:02:47.018Z,6.75
2023-04-02T11:05:25.715Z,6.76
2023-04-02T11:08:02.371Z,6.75
2023-04-02T11:10:34.481Z,6.76
2023-04-02T11:13:29.506Z,6.75
2023-04-02T11:15:57.814Z,6.76
2023-04-02T11:18:28.420Z,6.86
2023-04-02T11:20:59.972Z,6.97
2023-04-02T11:23:33.846Z,7.07
2023-04-02T11:26:29.698Z,7.09
2023-04-02T11:29:06.534Z,7.10
2023-04-02T11:31:34.769Z,7.12
2023-04-02T11:34:02.821Z,7.08
2023-04-02T11:36:55.732Z,7.06
2023-04-02T11:39:53.837Z,7.06
2023-04-02T11:42:27.974Z,6.99
2023-04-02T11:45:00.162Z,6.98
2023-04-02T11:47:30.079Z,7.05
2023-04-02T11:50:04.494Z,7.10
2023-04-02T11:52:37.965Z,7.12
2023-04-02T11:55:19.042Z,7.15
2023-04-02T11:57:59.434Z,7.14
2023-04-02T12:01:04.995Z,7.04
2023-04-02T12:03:56.571Z,6.94
2023-04-02T12:06:27.396Z,6.90
2023-04-02T12:09:06.226Z,6.87
2023-04-02T12:11:38.485Z,6.84
2023-04-02T12:14:31.141Z,6.81
2023-04-02T12:16:59.852Z,6.68
2023-04-02T12:19:30.652Z,6.58
2023-04-02T12:22:00.415Z,6.51
2023-04-02T12:24:31.492Z,6.46
2023-04-02T12:27:15.762Z,6.46
2023-04-02T12:29:44.117Z,6.40
2023-04-02T12:32:22.235Z,6.42
2023-04-02T12:34:53.127Z,6.45
2023-04-02T12:37:24.985Z,6.47
2023-04-02T12:40:01.646Z,6.48
2023-04-02T12:42:34.947Z,6.42
2023-04-02T12:45:06.989Z,6.40
2023-04-02T12:47:35.178Z,6.42
2023-04-02T12:50:03.650Z,6.47
2023-04-02T12:52:32.875Z,6.50
2023-04-02T12:55:03.871Z,6.53
2023-04-02T12:57:38.182Z,6.52
2023-04-02T13:00:21.291Z,6.53
2023-04-02T13:02:52.502Z,6.51
2023-04-02T13:05:44.597Z,6.46
2023-04-02T13:08:23.699Z,6.35
2023-04-02T13:11:03.221Z,6.29
2023-04-02T13:13:37.220Z,6.21
2023-04-02T13:16:10.000Z,6.17
2023-04-02T13:18:39.949Z,6.13
2023-04-02T13:21:28.472Z,6.15
2023-04-02T13:23:56.774Z,6.09
2023-04-02T13:26:27.432Z,6.11
2023-04-02T13:28:56.657Z,6.12
2023-04-02T13:31:24.694Z,6.15
2023-04-02T13:33:52.948Z,6.20
2023-04-02T13:36:21.141Z,6.26
2023-04-02T13:38:49.131Z,6.31
2023-04-02T13:41:26.529Z,6.34
2023-04-02T13:43:56.199Z,6.29
2023-04-02T13:46:27.050Z,6.33
2023-04-02T13:48:56.183Z,6.32
2023-04-02T13:51:37.407Z,6.31
2023-04-02T13:54:16.981Z,6.26
2023-04-02T13:56:45.114Z,6.25
2023-04-02T13:59:14.216Z,6.29
2023-04-02T14:01:45.304Z,6.30
2023-04-02T14:04:18.999Z,6.33
2023-04-02T14:07:06.167Z,6.34
2023-04-02T14:09:43.354Z,6.32
2023-04-02T14:12:21.463Z,6.30
2023-04-02T14:15:19.741Z,6.27
2023-04-02T14:18:05.707Z,6.17
2023-04-02T14:20:47.500Z,6.16
2023-04-02T14:23:32.504Z,6.14
2023-04-02T14:26:19.010Z,6.11
2023-04-02T14:29:12.486Z,6.06
2023-04-02T14:32:06.437Z,6.02
2023-04-02T14:35:07.908Z,6.00
2023-04-02T14:37:57.019Z,5.96
2023-04-02T14:40:52.053Z,5.95
2023-04-02T14:43:24.127Z,5.95
2023-04-02T14:46:02.960Z,5.95
2023-04-02T14:48:31.153Z,5.97
2023-04-02T14:51:14.853Z,5.92
2023-04-02T14:53:58.998Z,5.89
2023-04-02T14:56:29.013Z,5.86
2023-04-02T14:59:17.399Z,5.85
2023-04-02T15:01:50.167Z,5.77
2023-04-02T15:04:24.348Z,5.74
2023-04-02T15:06:56.738Z,5.75
2023-04-02T15:09:42.201Z,5.72
2023-04-02T15:12:20.510Z,5.62
2023-04-02T15:14:55.033Z,5.58
2023-04-02T15:17:24.833Z,5.57
2023-04-02T15:20:02.438Z,5.57
2023-04-02T15:22:57.508Z,5.56
2023-04-02T15:25:34.728Z,5.56
2023-04-02T15:28:20.036Z,5.58
2023-04-02T15:30:52.572Z,5.53
2023-04-02T15:33:23.540Z,5.50
2023-04-02T15:36:07.402Z,5.49
2023-04-02T15:38:45.119Z,5.42
2023-04-02T15:41:27.966Z,5.37
2023-04-02T15:44:16.617Z,5.35
2023-04-02T15:47:12.486Z,5.27
2023-04-02T15:49:43.072Z,5.17
2023-04-02T15:52:36.234Z,5.13
2023-04-02T15:55:30.926Z,5.08
2023-04-02T15:58:14.268Z,5.08
2023-04-02T16:01:03.698Z,5.05
2023-04-02T16:04:04.098Z,5.02
2023-04-02T16:06:42.065Z,4.95
2023-04-02T16:09:39.077Z,4.92
2023-04-02T16:12:16.045Z,4.85
2023-04-02T16:14:47.502Z,4.80
2023-04-02T16:17:51.686Z,4.79
2023-04-02T16:20:34.452Z,4.77
2023-04-02T16:23:13.266Z,4.76
2023-04-02T16:26:22.901Z,4.73
2023-04-02T16:29:11.999Z,4.66
2023-04-02T16:32:10.491Z,4.63
2023-04-02T16:35:41.081Z,4.56
2023-04-02T16:38:12.056Z,4.52
2023-04-02T16:40:57.204Z,4.50
2023-04-02T16:44:04.212Z,4.46
2023-04-02T16:47:12.695Z,4.46
2023-04-02T16:50:12.649Z,4.43
2023-04-02T16:52:56.879Z,4.42
2023-04-02T16:55:37.170Z,4.38
2023-04-02T16:58:36.254Z,4.35
2023-04-02T17:01:16.114Z,4.33
2023-04-02T17:03:57.038Z,4.31
2023-04-02T17:06:53.256Z,4.29
2023-04-02T17:09:32.231Z,4.24
2023-04-02T17:12:14.430Z,4.22
2023-04-02T17:14:57.615Z,4.19
2023-04-02T17:17:25.817Z,4.18
2023-04-02T17:19:58.967Z,4.17
2023-04-02T17:22:30.814Z,4.15
2023-04-02T17:25:03.073Z,4.13
2023-04-02T17:27:45.968Z,4.12
2023-04-02T17:30:20.401Z,4.12
2023-04-02T17:32:48.404Z,4.11
2023-04-02T17:35:43.970Z,4.10
2023-04-02T17:38:20.135Z,4.04
2023-04-02T17:41:03.658Z,4.02
2023-04-02T17:44:02.772Z,4.01
2023-04-02T17:46:57.253Z,3.98
2023-04-02T17:49:40.065Z,3.95
2023-04-02T17:52:16.120Z,3.90
2023-04-02T17:55:19.829Z,3.88
2023-04-02T17:58:25.171Z,3.85
2023-04-02T18:01:14.608Z,3.83
2023-04-02T18:04:00.536Z,3.80
2023-04-02T18:07:07.211Z,3.78
2023-04-02T18:09:58.701Z,3.76
2023-04-02T18:12:35.767Z,3.77
2023-04-02T18:15:06.523Z,3.79
2023-04-02T18:18:08.916Z,3.75
2023-04-02T18:20:37.136Z,3.69
2023-04-02T18:23:24.207Z,3.71
2023-04-02T18:26:01.151Z,3.69
2023-04-02T18:28:49.133Z,3.68
2023-04-02T18:31:50.069Z,3.68
2023-04-02T18:34:18.258Z,3.65
2023-04-02T18:37:00.235Z,3.65
2023-04-02T18:39:45.825Z,3.64
2023-04-02T18:42:29.039Z,3.61
2023-04-02T18:45:22.311Z,3.64
2023-04-02T18:48:10.444Z,3.63
2023-04-02T18:50:40.978Z,3.67
2023-04-02T18:53:13.697Z,3.73
2023-04-02T18:55:48.578Z,3.78
2023-04-02T18:58:27.061Z,3.82
2023-04-02T19:00:56.460Z,3.82
2023-04-02T19:03:27.545Z,3.79
2023-04-02T19:06:05.749Z,3.79
2023-04-02T19:08:48.330Z,3.76
2023-04-02T19:11:31.686Z,3.68
2023-04-02T19:14:02.776Z,3.65
2023-04-02T19:16:53.628Z,3.65
2023-04-02T19:19:26.612Z,3.61
2023-04-02T19:22:00.728Z,3.59
2023-04-02T19:24:41.531Z,3.59
2023-04-02T19:27:21.633Z,3.62
2023-04-02T19:30:04.415Z,3.59
2023-04-02T19:33:01.958Z,3.56
2023-04-02T19:35:40.537Z,3.52
2023-04-02T19:38:37.062Z,3.49
2023-04-02T19:41:50.620Z,3.48
2023-04-02T19:44:19.818Z,3.45
2023-04-02T19:46:48.135Z,3.46
2023-04-02T19:49:28.558Z,3.49
2023-04-02T19:51:57.083Z,3.48
2023-04-02T19:54:25.109Z,3.50
2023-04-02T19:56:53.202Z,3.51
2023-04-02T19:59:21.969Z,3.52
2023-04-02T20:01:50.040Z,3.53
2023-04-02T20:04:18.241Z,3.53
2023-04-02T20:06:46.373Z,3.55
2023-04-02T20:09:14.449Z,3.56
2023-04-02T20:11:42.623Z,3.56
2023-04-02T20:14:10.817Z,3.56
2023-04-02T20:16:38.916Z,3.56
2023-04-02T20:19:07.042Z,3.53
2023-04-02T20:21:39.006Z,3.52
2023-04-02T20:24:07.831Z,3.53
2023-04-02T20:26:36.370Z,3.51
2023-04-02T20:29:04.325Z,3.53
2023-04-02T20:31:34.062Z,3.53
2023-04-02T20:34:05.088Z,3.49
2023-04-02T20:36:33.480Z,3.46
2023-04-02T20:39:01.550Z,3.44
2023-04-02T20:41:29.609Z,3.45
2023-04-02T20:43:57.674Z,3.49
2023-04-02T20:46:26.451Z,3.53
2023-04-02T20:48:54.745Z,3.50
2023-04-02T20:51:23.125Z,3.46
2023-04-02T20:53:51.038Z,3.42
2023-04-02T20:56:20.365Z,3.41
2023-04-02T20:58:48.561Z,3.44
2023-04-02T21:01:23.658Z,3.45
2023-04-02T21:04:00.505Z,3.45
2023-04-02T21:06:31.931Z,3.44
2023-04-02T21:09:02.160Z,3.42
2023-04-02T21:11:30.407Z,3.40
2023-04-02T21:13:58.702Z,3.44
2023-04-02T21:16:29.819Z,3.42
2023-04-02T21:19:01.178Z,3.38
2023-04-02T21:21:29.223Z,3.35
2023-04-02T21:24:02.950Z,3.36
2023-04-02T21:26:34.653Z,3.35
2023-04-02T21:29:04.214Z,3.36
2023-04-02T21:31:38.090Z,3.37
2023-04-02T21:34:08.470Z,3.38
2023-04-02T21:36:40.323Z,3.41
2023-04-02T21:39:12.367Z,3.42
2023-04-02T21:41:43.386Z,3.40
2023-04-02T21:44:14.846Z,3.41
2023-04-02T21:46:43.860Z,3.42
2023-04-02T21:49:14.090Z,3.45
2023-04-02T21:51:43.881Z,3.44
2023-04-02T21:54:12.466Z,3.41
2023-04-02T21:56:43.405Z,3.39
2023-04-02T21:59:13.209Z,3.38
2023-04-02T22:01:43.698Z,3.37
2023-04-02T22:04:18.159Z,3.37
2023-04-02T22:06:46.746Z,3.35
2023-04-02T22:09:21.843Z,3.35
2023-04-02T22:11:54.566Z,3.32
2023-04-02T22:14:23.103Z,3.30
2023-04-02T22:16:52.210Z,3.30
2023-04-02T22:19:21.441Z,3.31
2023-04-02T22:21:49.632Z,3.34
2023-04-02T22:24:25.499Z,3.34
2023-04-02T22:26:53.863Z,3.31
2023-04-02T22:29:22.110Z,3.29
2023-04-02T22:31:50.453Z,3.27
2023-04-02T22:34:18.451Z,3.23
2023-04-02T22:36:46.389Z,3.20
2023-04-02T22:39:15.317Z,3.19
2023-04-02T22:41:43.494Z,3.17
2023-04-02T22:44:16.513Z,3.19
2023-04-02T22:46:44.655Z,3.22
2023-04-02T22:49:12.924Z,3.24
2023-04-02T22:51:41.041Z,3.23
2023-04-02T22:54:09.165Z,3.19
2023-04-02T22:56:37.724Z,3.15
2023-04-02T22:59:05.978Z,3.18
2023-04-02T23:01:36.218Z,3.21
2023-04-02T23:04:05.610Z,3.21
2023-04-02T23:06:34.031Z,3.15
2023-04-02T23:09:02.302Z,3.15
2023-04-02T23:11:30.935Z,3.16
2023-04-02T23:13:58.962Z,3.19
2023-04-02T23:16:29.472Z,3.22
2023-04-02T23:18:58.767Z,3.23
2023-04-02T23:21:27.304Z,3.19
2023-04-02T23:23:56.046Z,3.17
2023-04-02T23:26:29.590Z,3.10
2023-04-02T23:28:59.752Z,3.04
2023-04-02T23:31:28.551Z,3.00
2023-04-02T23:33:57.147Z,3.01
2023-04-02T23:36:31.253Z,3.03
2023-04-02T23:39:02.875Z,3.03
2023-04-02T23:41:31.625Z,3.02
2023-04-02T23:43:59.953Z,3.01
2023-04-02T23:46:28.934Z,3.01
2023-04-02T23:48:58.259Z,3.00
2023-04-02T23:51:26.940Z,2.97
2023-04-02T23:53:55.605Z,2.96
2023-04-02T23:56:24.183Z,2.96
2023-04-02T23:58:52.281Z,2.99
